createdAt,value
2019-01-10T00:01:24.283Z,0.63
2019-01-10T00:06:23.062Z,0.90
2019-01-10T00:07:10.545Z,0.70
2019-01-10T00:07:57.207Z,0.77
2019-01-10T00:13:56.408Z,0.60
2019-01-10T00:16:07.360Z,0.60
2019-01-10T00:18:05.328Z,0.80
2019-01-10T00:27:41.957Z,0.80
2019-01-10T00:29:56.424Z,0.80
2019-01-10T00:31:56.405Z,0.73
2019-01-10T00:33:51.916Z,0.70
2019-01-10T00:37:54.070Z,1.03
2019-01-10T00:41:26.729Z,0.60
2019-01-10T00:42:13.593Z,0.57
2019-01-10T00:43:00.961Z,0.67
2019-01-10T00:44:14.235Z,0.60
2019-01-10T00:50:31.414Z,0.50
2019-01-10T00:53:33.640Z,0.50
2019-01-10T00:54:20.380Z,0.40
2019-01-10T01:05:40.523Z,0.50
2019-01-10T01:09:40.442Z,0.40
2019-01-10T01:10:27.445Z,0.60
2019-01-10T01:15:23.841Z,0.80
2019-01-10T01:16:10.853Z,0.50
2019-01-10T01:16:57.615Z,0.50
2019-01-10T01:17:44.218Z,0.40
2019-01-10T01:20:58.859Z,0.50
2019-01-10T01:22:52.212Z,0.70
2019-01-10T01:23:38.945Z,0.43
2019-01-10T01:24:25.355Z,0.43
2019-01-10T01:25:38.829Z,0.60
2019-01-10T01:28:54.054Z,1.00
2019-01-10T01:29:40.899Z,1.60
2019-01-10T01:30:28.320Z,2.33
2019-01-10T01:36:45.434Z,1.23
2019-01-10T01:43:41.571Z,1.03
2019-01-10T01:46:35.427Z,1.00
2019-01-10T01:47:22.134Z,1.10
2019-01-10T01:48:09.888Z,0.80
2019-01-10T01:48:56.309Z,0.93
2019-01-10T01:54:13.461Z,0.97
2019-01-10T01:56:13.489Z,1.20
2019-01-10T01:57:01.157Z,0.93
2019-01-10T02:00:32.058Z,1.10
2019-01-10T02:01:18.828Z,0.90
2019-01-10T02:02:06.316Z,0.90
2019-01-10T02:19:13.838Z,0.60
2019-01-10T02:23:17.407Z,0.60
2019-01-10T02:24:04.352Z,1.00
2019-01-10T02:24:51.493Z,0.90
2019-01-10T02:25:37.870Z,1.10
2019-01-10T02:26:24.672Z,0.77
2019-01-10T02:27:11.370Z,0.60
2019-01-10T02:30:09.837Z,1.40
2019-01-10T02:32:11.202Z,0.60
2019-01-10T02:32:57.830Z,0.70
2019-01-10T02:33:45.472Z,0.60
2019-01-10T02:41:22.158Z,0.80
2019-01-10T02:42:09.438Z,0.93
2019-01-10T02:43:58.014Z,0.70
2019-01-10T02:50:32.300Z,1.07
2019-01-10T02:51:47.479Z,0.90
2019-01-10T03:44:51.399Z,1.10
2019-01-10T03:55:42.343Z,0.87
2019-01-10T04:16:47.397Z,0.53
2019-01-10T04:20:22.310Z,0.70
2019-01-10T04:32:52.679Z,1.00
2019-01-10T04:36:27.031Z,1.40
2019-01-10T04:45:13.375Z,1.03
2019-01-10T04:50:09.052Z,1.20
2019-01-10T05:00:40.297Z,0.93
2019-01-10T05:05:10.593Z,1.00
2019-01-10T05:12:56.345Z,0.60
2019-01-10T05:15:06.586Z,0.60
2019-01-10T05:18:40.629Z,0.80
2019-01-10T05:50:48.682Z,0.80
2019-01-10T06:00:37.300Z,0.73
2019-01-10T06:06:07.663Z,0.63
2019-01-10T06:08:27.323Z,0.60
2019-01-10T06:09:40.936Z,0.63
2019-01-10T06:10:54.259Z,0.60
2019-01-10T06:17:28.327Z,0.60
2019-01-10T06:31:50.411Z,0.73
2019-01-10T06:34:18.284Z,0.57
2019-01-10T06:46:11.720Z,0.53
2019-01-10T07:23:52.348Z,0.60
2019-01-10T07:35:32.081Z,0.60
2019-01-10T07:39:55.116Z,0.60
2019-01-10T07:47:28.276Z,0.60
2019-01-10T07:50:56.141Z,0.60
2019-01-10T07:53:28.379Z,0.60
2019-01-10T07:58:08.987Z,0.47
2019-01-10T08:05:19.749Z,0.70
2019-01-10T08:15:29.137Z,0.53
2019-01-10T08:17:57.266Z,0.70
2019-01-10T08:36:09.216Z,0.57
2019-01-10T08:40:52.445Z,0.73
2019-01-10T08:46:53.745Z,0.63
2019-01-10T09:09:42.788Z,0.60
2019-01-10T09:25:57.348Z,0.80
2019-01-10T09:30:31.353Z,0.80
2019-01-10T09:32:58.013Z,0.80
2019-01-10T09:43:49.649Z,0.50
2019-01-10T09:46:09.124Z,0.60
2019-01-10T09:46:55.716Z,0.70
2019-01-10T09:53:41.619Z,0.60
2019-01-10T10:14:01.682Z,0.87
2019-01-10T10:23:26.541Z,0.73
2019-01-10T10:27:50.499Z,0.83
2019-01-10T10:36:51.900Z,1.07
2019-01-10T10:39:06.860Z,0.87
2019-01-10T10:46:39.598Z,0.70
2019-01-10T10:47:26.403Z,0.70
2019-01-10T10:50:43.888Z,0.90
2019-01-10T10:51:57.189Z,0.87
2019-01-10T10:59:21.344Z,0.83
2019-01-10T11:02:56.730Z,0.80
2019-01-10T11:10:35.081Z,0.90
2019-01-10T11:31:28.228Z,0.73
2019-01-10T11:40:30.460Z,0.80
2019-01-10T11:45:04.409Z,0.80
2019-01-10T11:47:58.816Z,0.83
2019-01-10T11:57:17.511Z,0.87
2019-01-10T12:04:05.796Z,0.70
2019-01-10T12:19:01.136Z,0.73
2019-01-10T12:30:43.362Z,0.80
2019-01-10T12:39:25.072Z,1.00
2019-01-10T12:42:52.986Z,1.07
2019-01-10T12:45:21.571Z,0.77
2019-01-10T12:48:36.507Z,0.93
2019-01-10T12:54:06.047Z,0.97
2019-01-10T13:02:47.454Z,0.87
2019-01-10T13:04:49.781Z,0.97
2019-01-10T13:05:36.524Z,0.67
2019-01-10T13:06:24.128Z,0.90
2019-01-10T13:14:33.298Z,0.70
2019-01-10T13:15:47.893Z,1.10
2019-01-10T13:21:23.982Z,0.70
2019-01-10T13:22:37.605Z,0.90
2019-01-10T13:25:43.997Z,1.03
2019-01-10T13:34:08.696Z,1.03
2019-01-10T13:43:14.414Z,0.67
2019-01-10T13:45:16.521Z,0.90
2019-01-10T13:46:03.234Z,0.90
2019-01-10T13:49:02.633Z,0.90
2019-01-10T13:49:49.448Z,0.60
2019-01-10T13:52:04.045Z,1.10
2019-01-10T14:00:49.127Z,1.00
2019-01-10T14:02:16.644Z,1.10
2019-01-10T14:03:11.749Z,0.90
2019-01-10T14:03:49.871Z,1.30
2019-01-10T14:04:26.240Z,1.00
2019-01-10T14:05:19.740Z,1.17
2019-01-10T14:05:55.939Z,1.00
2019-01-10T14:06:32.860Z,1.10
2019-01-10T14:07:09.206Z,1.00
2019-01-10T14:07:46.469Z,1.20
2019-01-10T14:08:23.745Z,1.20
2019-01-10T14:09:00.552Z,1.30
2019-01-10T14:09:36.976Z,1.17
2019-01-10T14:10:14.205Z,1.03
2019-01-10T14:10:50.685Z,1.20
2019-01-10T14:11:27.570Z,1.00
2019-01-10T14:12:04.797Z,0.93
2019-01-10T14:12:42.099Z,0.90
2019-01-10T14:13:18.583Z,1.00
2019-01-10T14:13:55.501Z,1.20
2019-01-10T14:14:32.235Z,1.07
2019-01-10T14:15:10.297Z,1.33
2019-01-10T14:15:46.840Z,1.20
2019-01-10T14:16:23.498Z,1.10
2019-01-10T14:17:01.791Z,0.97
2019-01-10T14:17:38.308Z,1.30
2019-01-10T14:18:15.033Z,1.20
2019-01-10T14:18:51.127Z,1.57
2019-01-10T14:19:27.548Z,1.10
2019-01-10T14:20:04.607Z,1.20
2019-01-10T14:20:41.081Z,0.93
2019-01-10T14:21:17.560Z,1.10
2019-01-10T14:21:54.488Z,1.13
2019-01-10T14:22:31.056Z,0.93
2019-01-10T14:23:08.153Z,0.80
2019-01-10T14:23:45.308Z,0.93
2019-01-10T14:24:22.077Z,0.93
2019-01-10T14:24:58.757Z,1.20
2019-01-10T14:25:35.543Z,0.83
2019-01-10T14:26:12.645Z,1.30
2019-01-10T14:26:50.305Z,1.07
2019-01-10T14:27:26.910Z,0.90
2019-01-10T14:28:03.905Z,1.13
2019-01-10T14:28:40.747Z,1.20
2019-01-10T14:29:17.115Z,0.90
2019-01-10T14:29:53.997Z,1.07
2019-01-10T14:30:34.787Z,1.40
2019-01-10T14:31:11.837Z,1.00
2019-01-10T14:31:49.139Z,1.43
2019-01-10T14:32:26.306Z,0.93
2019-01-10T14:33:02.942Z,1.07
2019-01-10T14:33:39.157Z,0.87
2019-01-10T14:34:15.607Z,1.00
2019-01-10T14:34:52.094Z,0.93
2019-01-10T14:35:29.280Z,1.00
2019-01-10T14:36:06.459Z,1.30
2019-01-10T14:36:43.067Z,0.90
2019-01-10T14:37:20.421Z,1.17
2019-01-10T14:37:57.149Z,1.10
2019-01-10T14:38:34.376Z,1.27
2019-01-10T14:39:11.609Z,0.80
2019-01-10T14:39:47.981Z,1.23
2019-01-10T14:40:24.669Z,1.30
2019-01-10T14:41:01.313Z,1.30
2019-01-10T14:41:38.260Z,1.13
2019-01-10T14:42:15.180Z,1.13
2019-01-10T14:42:51.761Z,1.03
2019-01-10T14:43:28.432Z,1.20
2019-01-10T14:44:04.999Z,1.00
2019-01-10T14:44:41.542Z,1.07
2019-01-10T14:45:18.577Z,1.10
2019-01-10T14:45:56.097Z,1.20
2019-01-10T14:46:32.519Z,1.00
2019-01-10T14:47:08.881Z,0.97
2019-01-10T14:47:45.714Z,0.90
2019-01-10T14:48:22.647Z,1.10
2019-01-10T14:48:59.076Z,1.40
2019-01-10T14:49:35.644Z,0.93
2019-01-10T14:50:12.594Z,1.40
2019-01-10T14:50:49.750Z,1.30
2019-01-10T14:51:26.410Z,1.00
2019-01-10T14:52:03.168Z,1.10
2019-01-10T14:52:39.514Z,1.30
2019-01-10T14:53:16.413Z,1.30
2019-01-10T14:53:53.705Z,1.30
2019-01-10T14:54:30.210Z,1.03
2019-01-10T14:55:08.185Z,1.00
2019-01-10T14:55:44.708Z,0.90
2019-01-10T14:56:21.806Z,1.20
2019-01-10T14:56:58.889Z,1.00
2019-01-10T14:57:35.865Z,0.90
2019-01-10T14:58:12.811Z,1.30
2019-01-10T14:58:49.952Z,1.23
2019-01-10T14:59:26.689Z,1.33
2019-01-10T15:00:02.996Z,0.97
2019-01-10T15:00:40.272Z,1.00
2019-01-10T15:01:17.339Z,1.13
2019-01-10T15:01:53.887Z,1.27
2019-01-10T15:02:30.503Z,1.07
2019-01-10T15:03:07.395Z,1.40
2019-01-10T15:03:43.940Z,1.23
2019-01-10T15:04:20.570Z,1.10
2019-01-10T15:04:56.518Z,1.50
2019-01-10T15:05:34.562Z,1.10
2019-01-10T15:06:11.412Z,1.00
2019-01-10T15:06:48.334Z,1.30
2019-01-10T15:07:25.042Z,1.00
2019-01-10T15:08:01.710Z,1.10
2019-01-10T15:08:38.463Z,1.30
2019-01-10T15:09:15.371Z,1.57
2019-01-10T15:09:52.200Z,1.33
2019-01-10T15:10:29.238Z,1.27
2019-01-10T15:11:05.581Z,1.30
2019-01-10T15:11:41.915Z,1.40
2019-01-10T15:12:19.048Z,1.20
2019-01-10T15:12:55.299Z,1.53
2019-01-10T15:13:32.625Z,1.27
2019-01-10T15:14:09.444Z,1.43
2019-01-10T15:14:46.760Z,1.40
2019-01-10T15:15:24.876Z,1.40
2019-01-10T15:16:01.396Z,1.20
2019-01-10T15:16:38.179Z,1.50
2019-01-10T15:17:15.027Z,1.50
2019-01-10T15:17:52.120Z,1.63
2019-01-10T15:18:29.624Z,1.50
2019-01-10T15:19:06.722Z,1.30
2019-01-10T15:19:43.299Z,1.43
2019-01-10T15:20:23.240Z,1.63
2019-01-10T15:21:00.303Z,1.60
2019-01-10T15:21:37.098Z,1.50
2019-01-10T15:22:13.477Z,1.50
2019-01-10T15:22:50.439Z,1.33
2019-01-10T15:23:27.320Z,1.30
2019-01-10T15:24:04.008Z,1.40
2019-01-10T15:24:40.535Z,1.40
2019-01-10T15:25:17.915Z,1.60
2019-01-10T15:25:54.511Z,1.20
2019-01-10T15:26:31.085Z,1.63
2019-01-10T15:27:08.275Z,1.43
2019-01-10T15:27:45.595Z,1.53
2019-01-10T15:28:22.366Z,1.50
2019-01-10T15:28:59.483Z,1.50
2019-01-10T15:29:36.720Z,1.43
2019-01-10T15:30:19.239Z,1.60
2019-01-10T15:30:57.154Z,1.53
2019-01-10T15:31:34.079Z,1.23
2019-01-10T15:32:11.066Z,1.63
2019-01-10T15:32:47.772Z,1.80
2019-01-10T15:33:23.987Z,1.90
2019-01-10T15:34:00.740Z,1.60
2019-01-10T15:34:37.023Z,1.23
2019-01-10T15:35:13.568Z,1.37
2019-01-10T15:35:49.916Z,1.40
2019-01-10T15:36:26.230Z,1.30
2019-01-10T15:37:03.016Z,1.43
2019-01-10T15:37:39.569Z,1.40
2019-01-10T15:38:16.167Z,0.90
2019-01-10T15:38:52.729Z,1.53
2019-01-10T15:39:29.370Z,1.33
2019-01-10T15:40:07.064Z,1.67
2019-01-10T15:40:43.649Z,1.10
2019-01-10T15:41:20.364Z,1.20
2019-01-10T15:41:57.371Z,1.50
2019-01-10T15:42:33.644Z,1.63
2019-01-10T15:43:11.238Z,1.20
2019-01-10T15:43:47.997Z,1.30
2019-01-10T15:44:29.099Z,1.43
2019-01-10T15:45:03.975Z,1.73
2019-01-10T15:45:40.498Z,1.30
2019-01-10T15:46:17.276Z,1.30
2019-01-10T15:46:54.189Z,1.03
2019-01-10T15:47:30.500Z,1.60
2019-01-10T15:48:07.572Z,1.57
2019-01-10T15:48:43.955Z,1.47
2019-01-10T15:49:20.220Z,1.57
2019-01-10T15:49:56.778Z,1.53
2019-01-10T15:50:32.812Z,1.27
2019-01-10T15:51:09.870Z,1.63
2019-01-10T15:51:46.860Z,1.50
2019-01-10T15:52:23.694Z,1.80
2019-01-10T15:53:01.022Z,1.60
2019-01-10T15:53:36.964Z,1.50
2019-01-10T15:54:13.568Z,1.60
2019-01-10T15:54:50.775Z,1.70
2019-01-10T15:55:27.203Z,1.20
2019-01-10T15:56:04.528Z,1.67
2019-01-10T15:56:41.395Z,1.40
2019-01-10T15:57:17.657Z,1.60
2019-01-10T15:57:54.330Z,1.30
2019-01-10T15:58:31.431Z,1.57
2019-01-10T15:59:08.803Z,1.40
2019-01-10T15:59:45.866Z,1.37
2019-01-10T16:00:27.171Z,1.40
2019-01-10T16:01:03.883Z,1.27
2019-01-10T16:01:40.129Z,1.40
2019-01-10T16:02:16.743Z,1.70
2019-01-10T16:02:53.804Z,1.40
2019-01-10T16:03:30.440Z,0.93
2019-01-10T16:04:07.668Z,1.20
2019-01-10T16:04:45.472Z,1.40
2019-01-10T16:05:22.350Z,1.33
2019-01-10T16:05:59.077Z,1.43
2019-01-10T16:06:35.258Z,1.70
2019-01-10T16:07:11.954Z,1.37
2019-01-10T16:07:48.880Z,1.30
2019-01-10T16:08:25.895Z,1.13
2019-01-10T16:09:02.891Z,1.40
2019-01-10T16:09:39.756Z,1.80
2019-01-10T16:10:18.173Z,1.37
2019-01-10T16:10:55.105Z,1.20
2019-01-10T16:11:32.165Z,1.83
2019-01-10T16:12:08.817Z,1.40
2019-01-10T16:12:45.577Z,1.33
2019-01-10T16:13:22.049Z,1.30
2019-01-10T16:14:01.501Z,1.63
2019-01-10T16:14:38.345Z,1.30
2019-01-10T16:15:19.095Z,1.83
2019-01-10T16:15:56.170Z,1.37
2019-01-10T16:16:32.450Z,1.73
2019-01-10T16:17:08.694Z,1.20
2019-01-10T16:17:44.947Z,1.43
2019-01-10T16:18:21.735Z,1.47
2019-01-10T16:18:58.151Z,1.80
2019-01-10T16:19:34.678Z,1.30
2019-01-10T16:20:11.408Z,2.17
2019-01-10T16:20:47.790Z,1.60
2019-01-10T16:21:24.367Z,1.20
2019-01-10T16:22:01.272Z,1.63
2019-01-10T16:22:37.783Z,1.63
2019-01-10T16:23:14.364Z,1.30
2019-01-10T16:23:50.892Z,1.40
2019-01-10T16:24:27.342Z,1.60
2019-01-10T16:25:04.318Z,1.30
2019-01-10T16:25:40.791Z,1.27
2019-01-10T16:26:17.246Z,1.47
2019-01-10T16:26:54.324Z,1.97
2019-01-10T16:27:30.616Z,1.30
2019-01-10T16:28:07.437Z,1.50
2019-01-10T16:28:44.160Z,1.80
2019-01-10T16:29:20.617Z,1.43
2019-01-10T16:29:57.351Z,1.47
2019-01-10T16:30:34.212Z,1.30
2019-01-10T16:31:11.104Z,1.20
2019-01-10T16:31:48.342Z,1.20
2019-01-10T16:32:25.238Z,1.40
2019-01-10T16:33:02.176Z,1.53
2019-01-10T16:33:38.967Z,1.40
2019-01-10T16:34:15.610Z,1.57
2019-01-10T16:34:52.608Z,1.30
2019-01-10T16:35:29.372Z,1.30
2019-01-10T16:36:05.934Z,1.40
2019-01-10T16:36:42.571Z,1.40
2019-01-10T16:37:19.135Z,1.40
2019-01-10T16:37:55.590Z,1.63
2019-01-10T16:38:32.532Z,1.53
2019-01-10T16:39:10.543Z,1.30
2019-01-10T16:39:46.929Z,1.30
2019-01-10T16:40:23.767Z,1.50
2019-01-10T16:41:00.164Z,1.60
2019-01-10T16:41:37.631Z,1.77
2019-01-10T16:42:14.397Z,1.40
2019-01-10T16:42:51.109Z,1.53
2019-01-10T16:43:28.171Z,1.30
2019-01-10T16:44:04.964Z,1.47
2019-01-10T16:44:42.101Z,1.40
2019-01-10T16:45:25.245Z,1.60
2019-01-10T16:46:01.993Z,1.47
2019-01-10T16:46:38.497Z,1.60
2019-01-10T16:47:15.337Z,1.53
2019-01-10T16:47:51.742Z,1.10
2019-01-10T16:48:27.904Z,1.50
2019-01-10T16:49:04.472Z,1.50
2019-01-10T16:49:40.595Z,1.40
2019-01-10T16:50:17.337Z,1.43
2019-01-10T16:50:54.478Z,1.20
2019-01-10T16:51:30.909Z,1.30
2019-01-10T16:52:07.103Z,1.70
2019-01-10T16:52:43.480Z,1.60
2019-01-10T16:53:20.055Z,1.60
2019-01-10T16:53:56.968Z,1.70
2019-01-10T16:54:33.619Z,1.50
2019-01-10T16:55:11.423Z,1.50
2019-01-10T16:55:48.034Z,1.70
2019-01-10T16:56:24.792Z,1.50
2019-01-10T16:57:01.441Z,1.60
2019-01-10T16:57:37.971Z,2.20
2019-01-10T16:58:15.307Z,1.90
2019-01-10T16:58:51.916Z,1.60
2019-01-10T16:59:29.222Z,2.00
2019-01-10T17:00:06.528Z,1.63
2019-01-10T17:00:43.395Z,2.00
2019-01-10T17:01:20.388Z,1.80
2019-01-10T17:01:57.222Z,1.70
2019-01-10T17:02:36.287Z,2.00
2019-01-10T17:03:11.930Z,1.57
2019-01-10T17:03:49.347Z,1.50
2019-01-10T17:04:26.430Z,1.70
2019-01-10T17:05:03.222Z,2.20
2019-01-10T17:05:40.236Z,1.90
2019-01-10T17:06:16.863Z,1.60
2019-01-10T17:06:53.734Z,1.50
2019-01-10T17:07:30.320Z,2.07
2019-01-10T17:08:08.432Z,1.60
2019-01-10T17:08:44.641Z,1.40
2019-01-10T17:09:22.323Z,1.40
2019-01-10T17:09:59.059Z,1.80
2019-01-10T17:10:36.108Z,1.93
2019-01-10T17:11:12.994Z,1.57
2019-01-10T17:11:50.178Z,2.13
2019-01-10T17:12:26.895Z,1.57
2019-01-10T17:13:04.031Z,1.63
2019-01-10T17:13:40.971Z,1.30
2019-01-10T17:14:17.558Z,2.27
2019-01-10T17:14:54.962Z,1.50
2019-01-10T17:15:32.001Z,1.50
2019-01-10T17:16:08.763Z,2.10
2019-01-10T17:16:50.150Z,1.67
2019-01-10T17:17:23.533Z,1.63
2019-01-10T17:17:59.839Z,1.63
2019-01-10T17:18:35.909Z,1.53
2019-01-10T17:19:25.692Z,1.57
2019-01-10T17:20:02.418Z,1.57
2019-01-10T17:20:39.439Z,1.37
2019-01-10T17:21:16.357Z,1.50
2019-01-10T17:21:53.499Z,1.77
2019-01-10T17:22:29.770Z,1.33
2019-01-10T17:23:07.390Z,1.50
2019-01-10T17:23:45.542Z,1.70
2019-01-10T17:24:22.568Z,1.57
2019-01-10T17:24:59.550Z,1.40
2019-01-10T17:25:36.627Z,1.50
2019-01-10T17:26:13.029Z,1.23
2019-01-10T17:26:49.785Z,1.60
2019-01-10T17:27:26.451Z,1.50
2019-01-10T17:28:03.121Z,1.60
2019-01-10T17:28:40.623Z,1.63
2019-01-10T17:29:17.575Z,1.80
2019-01-10T17:29:54.418Z,1.83
2019-01-10T17:30:32.638Z,1.50
2019-01-10T17:31:09.794Z,1.40
2019-01-10T17:31:46.455Z,1.57
2019-01-10T17:32:23.688Z,1.50
2019-01-10T17:33:00.665Z,1.70
2019-01-10T17:33:37.354Z,1.50
2019-01-10T17:34:14.133Z,1.30
2019-01-10T17:34:51.301Z,1.40
2019-01-10T17:35:30.698Z,1.53
2019-01-10T17:36:07.571Z,1.53
2019-01-10T17:36:44.717Z,1.60
2019-01-10T17:37:22.186Z,1.50
2019-01-10T17:37:58.797Z,1.40
2019-01-10T17:38:35.481Z,1.30
2019-01-10T17:39:12.713Z,1.67
2019-01-10T17:39:49.442Z,1.37
2019-01-10T17:40:26.611Z,1.40
2019-01-10T17:41:03.376Z,1.63
2019-01-10T17:41:40.488Z,1.40
2019-01-10T17:42:17.520Z,1.43
2019-01-10T17:42:54.936Z,1.23
2019-01-10T17:43:31.351Z,1.40
2019-01-10T17:44:07.896Z,1.50
2019-01-10T17:44:44.963Z,1.43
2019-01-10T17:45:23.720Z,1.40
2019-01-10T17:46:00.947Z,1.37
2019-01-10T17:46:38.131Z,1.63
2019-01-10T17:47:15.298Z,1.27
2019-01-10T17:47:55.321Z,1.40
2019-01-10T17:48:32.061Z,1.23
2019-01-10T17:49:08.790Z,1.20
2019-01-10T17:49:45.565Z,1.20
2019-01-10T17:50:22.169Z,1.40
2019-01-10T17:50:58.747Z,1.33
2019-01-10T17:51:35.665Z,1.30
2019-01-10T17:52:12.531Z,1.50
2019-01-10T17:52:49.676Z,1.20
2019-01-10T17:53:26.154Z,1.30
2019-01-10T17:54:02.772Z,1.20
2019-01-10T17:54:39.613Z,1.37
2019-01-10T17:55:16.517Z,1.53
2019-01-10T17:55:53.116Z,1.60
2019-01-10T17:56:29.364Z,1.40
2019-01-10T17:57:05.962Z,1.70
2019-01-10T17:57:42.743Z,1.50
2019-01-10T17:58:20.177Z,1.20
2019-01-10T17:58:56.791Z,1.60
2019-01-10T17:59:33.462Z,1.33
2019-01-10T18:00:14.939Z,1.30
2019-01-10T18:00:51.377Z,1.63
2019-01-10T18:01:29.021Z,1.40
2019-01-10T18:02:05.284Z,1.20
2019-01-10T18:02:42.316Z,1.20
2019-01-10T18:03:19.480Z,1.30
2019-01-10T18:03:56.175Z,1.07
2019-01-10T18:04:33.111Z,1.40
2019-01-10T18:05:10.177Z,1.37
2019-01-10T18:05:47.507Z,1.40
2019-01-10T18:06:24.407Z,1.23
2019-01-10T18:07:00.666Z,1.30
2019-01-10T18:07:37.502Z,1.20
2019-01-10T18:08:14.048Z,1.60
2019-01-10T18:08:50.603Z,1.17
2019-01-10T18:09:27.530Z,1.30
2019-01-10T18:10:04.289Z,1.50
2019-01-10T18:10:41.168Z,1.30
2019-01-10T18:11:18.562Z,1.50
2019-01-10T18:11:55.054Z,1.47
2019-01-10T18:12:31.618Z,1.43
2019-01-10T18:13:08.611Z,1.70
2019-01-10T18:13:45.417Z,1.30
2019-01-10T18:14:22.867Z,1.40
2019-01-10T18:15:00.290Z,1.20
2019-01-10T18:15:36.517Z,1.30
2019-01-10T18:16:13.383Z,1.47
2019-01-10T18:16:50.281Z,1.60
2019-01-10T18:17:28.187Z,1.70
2019-01-10T18:18:04.720Z,1.60
2019-01-10T18:18:41.448Z,1.20
2019-01-10T18:19:18.386Z,1.50
2019-01-10T18:19:54.819Z,1.67
2019-01-10T18:20:36.064Z,1.30
2019-01-10T18:21:15.047Z,1.67
2019-01-10T18:21:51.648Z,1.20
2019-01-10T18:22:28.642Z,1.30
2019-01-10T18:23:05.243Z,1.17
2019-01-10T18:23:41.829Z,1.30
2019-01-10T18:24:18.359Z,1.40
2019-01-10T18:24:54.989Z,1.37
2019-01-10T18:25:31.415Z,1.23
2019-01-10T18:26:07.947Z,1.37
2019-01-10T18:26:44.591Z,1.33
2019-01-10T18:27:21.040Z,1.60
2019-01-10T18:27:57.624Z,1.40
2019-01-10T18:28:34.426Z,1.70
2019-01-10T18:29:11.786Z,1.50
2019-01-10T18:29:48.767Z,1.40
2019-01-10T18:30:25.399Z,1.50
2019-01-10T18:31:01.686Z,1.43
2019-01-10T18:31:38.784Z,1.20
2019-01-10T18:32:16.380Z,1.47
2019-01-10T18:32:53.407Z,1.30
2019-01-10T18:33:29.753Z,1.13
2019-01-10T18:34:06.342Z,1.50
2019-01-10T18:34:43.448Z,1.43
2019-01-10T18:35:26.064Z,1.43
2019-01-10T18:35:59.974Z,1.43
2019-01-10T18:36:36.716Z,1.27
2019-01-10T18:37:13.856Z,1.27
2019-01-10T18:37:50.681Z,1.47
2019-01-10T18:38:30.860Z,1.33
2019-01-10T18:39:09.937Z,1.40
2019-01-10T18:39:46.954Z,1.27
2019-01-10T18:40:23.494Z,1.30
2019-01-10T18:41:00.206Z,1.23
2019-01-10T18:41:36.784Z,1.40
2019-01-10T18:42:13.577Z,1.73
2019-01-10T18:42:50.172Z,1.20
2019-01-10T18:43:27.529Z,1.50
2019-01-10T18:44:06.547Z,1.40
2019-01-10T18:44:43.676Z,1.80
2019-01-10T18:45:23.332Z,1.40
2019-01-10T18:46:00.988Z,1.50
2019-01-10T18:46:37.496Z,1.60
2019-01-10T18:47:13.870Z,1.33
2019-01-10T18:47:56.696Z,1.70
2019-01-10T18:48:28.921Z,1.43
2019-01-10T18:49:06.124Z,1.40
2019-01-10T18:49:44.039Z,1.60
2019-01-10T18:50:22.835Z,1.40
2019-01-10T18:50:59.375Z,1.40
2019-01-10T18:51:35.562Z,1.40
2019-01-10T18:52:12.168Z,1.50
2019-01-10T18:52:49.030Z,1.30
2019-01-10T18:53:25.889Z,1.50
2019-01-10T18:54:02.824Z,1.50
2019-01-10T18:54:39.319Z,1.40
2019-01-10T18:55:16.531Z,1.67
2019-01-10T18:55:53.974Z,1.43
2019-01-10T18:56:30.882Z,1.23
2019-01-10T18:57:07.664Z,1.57
2019-01-10T18:57:43.923Z,1.60
2019-01-10T18:58:20.406Z,1.53
2019-01-10T18:58:57.376Z,1.50
2019-01-10T18:59:36.595Z,1.43
2019-01-10T19:00:19.294Z,1.63
2019-01-10T19:00:57.158Z,1.13
2019-01-10T19:01:33.911Z,1.37
2019-01-10T19:02:10.931Z,1.70
2019-01-10T19:02:47.695Z,1.77
2019-01-10T19:03:24.062Z,1.37
2019-01-10T19:04:00.853Z,1.53
2019-01-10T19:04:37.392Z,1.73
2019-01-10T19:05:14.452Z,1.70
2019-01-10T19:05:51.293Z,1.57
2019-01-10T19:06:27.812Z,1.63
2019-01-10T19:07:04.667Z,1.47
2019-01-10T19:07:41.128Z,1.30
2019-01-10T19:08:17.602Z,1.40
2019-01-10T19:08:54.442Z,1.50
2019-01-10T19:09:31.667Z,1.33
2019-01-10T19:10:09.284Z,1.50
2019-01-10T19:10:47.011Z,1.20
2019-01-10T19:11:23.501Z,1.50
2019-01-10T19:12:00.368Z,1.60
2019-01-10T19:12:37.044Z,1.33
2019-01-10T19:13:14.188Z,1.50
2019-01-10T19:13:50.998Z,1.73
2019-01-10T19:14:27.958Z,1.47
2019-01-10T19:15:04.543Z,1.37
2019-01-10T19:15:41.395Z,1.30
2019-01-10T19:16:18.016Z,1.20
2019-01-10T19:16:55.333Z,1.70
2019-01-10T19:17:31.773Z,1.60
2019-01-10T19:18:08.924Z,1.93
2019-01-10T19:18:46.173Z,1.60
2019-01-10T19:19:22.792Z,1.43
2019-01-10T19:19:59.853Z,1.60
2019-01-10T19:20:36.565Z,1.63
2019-01-10T19:21:13.781Z,2.00
2019-01-10T19:21:50.749Z,1.77
2019-01-10T19:22:27.627Z,1.63
2019-01-10T19:23:05.265Z,1.50
2019-01-10T19:23:42.156Z,1.40
2019-01-10T19:24:19.399Z,1.67
2019-01-10T19:24:57.011Z,1.43
2019-01-10T19:25:33.814Z,1.40
2019-01-10T19:26:11.031Z,1.27
2019-01-10T19:26:47.885Z,1.57
2019-01-10T19:27:24.587Z,1.50
2019-01-10T19:28:01.405Z,1.70
2019-01-10T19:28:38.711Z,1.57
2019-01-10T19:29:15.056Z,1.83
2019-01-10T19:29:51.565Z,1.30
2019-01-10T19:30:30.812Z,1.60
2019-01-10T19:31:07.719Z,1.37
2019-01-10T19:31:45.482Z,1.30
2019-01-10T19:32:22.536Z,1.70
2019-01-10T19:33:01.343Z,1.50
2019-01-10T19:33:38.298Z,1.50
2019-01-10T19:34:15.683Z,1.33
2019-01-10T19:34:51.870Z,1.50
2019-01-10T19:35:28.536Z,1.40
2019-01-10T19:36:05.243Z,1.47
2019-01-10T19:36:41.491Z,1.50
2019-01-10T19:37:17.941Z,1.57
2019-01-10T19:37:54.613Z,1.70
2019-01-10T19:38:31.266Z,1.47
2019-01-10T19:39:09.922Z,1.50
2019-01-10T19:39:47.181Z,1.63
2019-01-10T19:40:24.025Z,1.40
2019-01-10T19:41:00.804Z,1.40
2019-01-10T19:41:37.578Z,1.40
2019-01-10T19:42:14.484Z,1.20
2019-01-10T19:42:50.766Z,1.40
2019-01-10T19:43:26.968Z,1.30
2019-01-10T19:44:03.570Z,1.40
2019-01-10T19:44:40.870Z,1.17
2019-01-10T19:45:18.721Z,1.60
2019-01-10T19:45:55.669Z,1.60
2019-01-10T19:46:32.166Z,1.63
2019-01-10T19:47:09.111Z,1.00
2019-01-10T19:47:45.727Z,1.50
2019-01-10T19:48:21.893Z,1.53
2019-01-10T19:48:58.685Z,1.10
2019-01-10T19:49:36.171Z,1.10
2019-01-10T19:50:15.597Z,1.37
2019-01-10T19:50:52.085Z,1.30
2019-01-10T19:51:28.867Z,1.30
2019-01-10T19:52:06.239Z,1.20
2019-01-10T19:52:43.109Z,1.30
2019-01-10T19:53:19.776Z,1.20
2019-01-10T19:53:56.385Z,1.30
2019-01-10T19:54:33.606Z,1.43
2019-01-10T19:55:12.142Z,1.20
2019-01-10T19:55:49.115Z,1.20
2019-01-10T19:56:25.982Z,1.40
2019-01-10T19:57:02.905Z,1.17
2019-01-10T19:57:39.324Z,1.10
2019-01-10T19:58:16.172Z,1.60
2019-01-10T19:58:53.034Z,1.00
2019-01-10T19:59:29.935Z,1.37
2019-01-10T20:00:08.495Z,1.20
2019-01-10T20:00:48.652Z,1.10
2019-01-10T20:01:28.243Z,1.10
2019-01-10T20:02:04.726Z,1.17
2019-01-10T20:02:41.896Z,1.50
2019-01-10T20:03:18.691Z,1.17
2019-01-10T20:03:56.105Z,1.40
2019-01-10T20:04:33.014Z,1.47
2019-01-10T20:05:09.916Z,1.20
2019-01-10T20:05:46.752Z,1.47
2019-01-10T20:06:24.048Z,1.40
2019-01-10T20:07:00.981Z,1.27
2019-01-10T20:07:37.731Z,1.30
2019-01-10T20:08:14.592Z,1.10
2019-01-10T20:08:51.417Z,1.13
2019-01-10T20:09:30.024Z,1.10
2019-01-10T20:10:07.510Z,1.67
2019-01-10T20:10:44.200Z,1.33
2019-01-10T20:11:21.120Z,1.40
2019-01-10T20:12:16.820Z,1.10
2019-01-10T20:12:53.801Z,0.90
2019-01-10T20:13:31.687Z,1.30
2019-01-10T20:14:09.488Z,1.20
2019-01-10T20:14:46.166Z,1.57
2019-01-10T20:15:22.692Z,0.90
2019-01-10T20:15:59.802Z,1.10
2019-01-10T20:16:37.149Z,1.30
2019-01-10T20:17:13.856Z,1.00
2019-01-10T20:17:51.470Z,1.60
2019-01-10T20:18:28.646Z,1.80
2019-01-10T20:19:06.120Z,1.10
2019-01-10T20:19:43.010Z,1.10
2019-01-10T20:20:24.093Z,1.07
2019-01-10T20:21:01.195Z,1.50
2019-01-10T20:21:38.667Z,1.23
2019-01-10T20:22:16.072Z,1.43
2019-01-10T20:22:52.984Z,0.97
2019-01-10T20:23:32.728Z,1.13
2019-01-10T20:24:09.828Z,1.40
2019-01-10T20:24:47.312Z,1.43
2019-01-10T20:25:24.502Z,1.10
2019-01-10T20:26:01.586Z,1.20
2019-01-10T20:26:38.417Z,1.33
2019-01-10T20:27:15.600Z,1.00
2019-01-10T20:27:52.252Z,1.30
2019-01-10T20:28:28.875Z,1.30
2019-01-10T20:29:05.798Z,1.03
2019-01-10T20:29:43.069Z,1.73
2019-01-10T20:30:19.575Z,1.17
2019-01-10T20:30:56.426Z,1.37
2019-01-10T20:31:32.744Z,1.30
2019-01-10T20:32:09.603Z,1.20
2019-01-10T20:32:45.879Z,1.10
2019-01-10T20:33:22.890Z,1.10
2019-01-10T20:33:59.660Z,1.10
2019-01-10T20:34:35.885Z,1.10
2019-01-10T20:35:12.247Z,1.23
2019-01-10T20:35:49.092Z,1.17
2019-01-10T20:36:25.413Z,1.00
2019-01-10T20:37:02.309Z,0.80
2019-01-10T20:37:38.591Z,1.00
2019-01-10T20:38:15.605Z,1.13
2019-01-10T20:38:51.903Z,1.30
2019-01-10T20:39:28.435Z,1.20
2019-01-10T20:40:05.570Z,1.10
2019-01-10T20:40:42.334Z,1.10
2019-01-10T20:41:19.315Z,1.20
2019-01-10T20:42:01.857Z,1.30
2019-01-10T20:42:34.847Z,1.20
2019-01-10T20:43:11.667Z,1.10
2019-01-10T20:43:48.571Z,1.43
2019-01-10T20:44:24.917Z,1.33